sensor_id;sensor_type;location;lat;lon;timestamp;pressure;altitude;pressure_sealevel;temperature;humidity
32789;BME280;19141;48.980;8.410;2023-03-18T05:22:32;99847.06;;;5.78;100.00
32789;BME280;19141;48.980;8.410;2023-03-18T05:25:07;99857.19;;;5.82;100.00
32789;BME280;19141;48.980;8.410;2023-03-18T05:27:33;99850.91;;;5.83;100.00
32789;BME280;19141;48.980;8.410;2023-03-18T05:30:05;99858.19;;;5.81;100.00
32789;BME280;19141;48.980;8.410;2023-03-18T05:32:37;99853.34;;;5.77;100.00
32789;BME280;19141;48.980;8.410;2023-03-18T05:35:05;99858.63;;;5.77;100.00
32789;BME280;19141;48.980;8.410;2023-03-18T05:37:39;99858.63;;;5.77;100.00
32789;BME280;19141;48.980;8.410;2023-03-18T05:40:06;99861.78;;;5.80;100.00
32789;BME280;19141;48.980;8.410;2023-03-18T05:42:36;99857.63;;;5.78;100.00
32789;BME280;19141;48.980;8.410;2023-03-18T05:45:04;99865.94;;;5.83;100.00
32789;BME280;19141;48.980;8.410;2023-03-18T05:47:30;99860.81;;;5.81;100.00
32789;BME280;19141;48.980;8.410;2023-03-18T05:50:11;99859.28;;;5.79;100.00
32789;BME280;19141;48.980;8.410;2023-03-18T05:52:37;99871.25;;;5.83;100.00
32789;BME280;19141;48.980;8.410;2023-03-18T05:55:07;99873.22;;;5.81;100.00
32789;BME280;19141;48.980;8.410;2023-03-18T05:57:36;99871.53;;;5.80;100.00
32789;BME280;19141;48.980;8.410;2023-03-18T06:00:07;99872.66;;;5.77;100.00
32789;BME280;19141;48.980;8.410;2023-03-18T06:02:41;99876.97;;;5.78;100.00
32789;BME280;19141;48.980;8.410;2023-03-18T06:05:07;99875.97;;;5.79;100.00
32789;BME280;19141;48.980;8.410;2023-03-18T06:07:33;99875.84;;;5.81;100.00
32789;BME280;19141;48.980;8.410;2023-03-18T06:09:59;99872.34;;;5.80;100.00
32789;BME280;19141;48.980;8.410;2023-03-18T06:12:25;99871.75;;;5.86;100.00
32789;BME280;19141;48.980;8.410;2023-03-18T06:14:52;99879.84;;;5.85;100.00
32789;BME280;19141;48.980;8.410;2023-03-18T06:17:19;99880.09;;;5.91;100.00
32789;BME280;19141;48.980;8.410;2023-03-18T06:19:45;99879.25;;;5.91;100.00
32789;BME280;19141;48.980;8.410;2023-03-18T06:22:11;99883.66;;;6.00;100.00
32789;BME280;19141;48.980;8.410;2023-03-18T06:24:37;99888.31;;;6.06;100.00
32789;BME280;19141;48.980;8.410;2023-03-18T06:27:03;99890.66;;;6.09;100.00
32789;BME280;19141;48.980;8.410;2023-03-18T06:29:29;99890.81;;;6.08;100.00
32789;BME280;19141;48.980;8.410;2023-03-18T06:31:59;99891.31;;;6.11;100.00
32789;BME280;19141;48.980;8.410;2023-03-18T06:34:26;99896.25;;;6.06;100.00
32789;BME280;19141;48.980;8.410;2023-03-18T06:36:53;99893.75;;;6.05;100.00
32789;BME280;19141;48.980;8.410;2023-03-18T06:39:19;99893.09;;;6.03;100.00
32789;BME280;19141;48.980;8.410;2023-03-18T06:41:45;99904.50;;;6.03;100.00
32789;BME280;19141;48.980;8.410;2023-03-18T06:44:36;99904.81;;;6.00;100.00
32789;BME280;19141;48.980;8.410;2023-03-18T06:47:14;99901.84;;;6.03;100.00
32789;BME280;19141;48.980;8.410;2023-03-18T06:49:48;99897.09;;;6.07;100.00
32789;BME280;19141;48.980;8.410;2023-03-18T06:52:18;99897.09;;;6.07;100.00
32789;BME280;19141;48.980;8.410;2023-03-18T06:54:44;99902.59;;;6.13;100.00
32789;BME280;19141;48.980;8.410;2023-03-18T06:57:10;99899.19;;;6.21;100.00
32789;BME280;19141;48.980;8.410;2023-03-18T06:59:36;99900.13;;;6.38;100.00
32789;BME280;19141;48.980;8.410;2023-03-18T07:02:03;99904.81;;;6.44;100.00
32789;BME280;19141;48.980;8.410;2023-03-18T07:04:30;99903.19;;;6.51;100.00
32789;BME280;19141;48.980;8.410;2023-03-18T07:06:58;99912.88;;;6.60;100.00
32789;BME280;19141;48.980;8.410;2023-03-18T07:09:25;99918.94;;;6.78;100.00
32789;BME280;19141;48.980;8.410;2023-03-18T07:11:54;99915.41;;;7.04;100.00
32789;BME280;19141;48.980;8.410;2023-03-18T07:14:20;99912.63;;;7.05;100.00
32789;BME280;19141;48.980;8.410;2023-03-18T07:16:46;99921.75;;;7.11;100.00
32789;BME280;19141;48.980;8.410;2023-03-18T07:19:13;99908.84;;;7.16;100.00
32789;BME280;19141;48.980;8.410;2023-03-18T07:21:40;99923.47;;;7.28;100.00
32789;BME280;19141;48.980;8.410;2023-03-18T07:24:08;99925.47;;;7.34;100.00
32789;BME280;19141;48.980;8.410;2023-03-18T07:26:34;99931.13;;;7.40;100.00
32789;BME280;19141;48.980;8.410;2023-03-18T07:28:59;99929.34;;;7.48;99.62
32789;BME280;19141;48.980;8.410;2023-03-18T07:31:25;99921.91;;;7.60;97.94
32789;BME280;19141;48.980;8.410;2023-03-18T07:33:50;99929.75;;;7.78;98.50
32789;BME280;19141;48.980;8.410;2023-03-18T07:36:16;99936.06;;;8.01;99.72
32789;BME280;19141;48.980;8.410;2023-03-18T07:38:41;99934.09;;;8.28;99.76
32789;BME280;19141;48.980;8.410;2023-03-18T07:41:07;99935.28;;;8.50;97.25
32789;BME280;19141;48.980;8.410;2023-03-18T07:43:33;99941.22;;;8.84;96.41
32789;BME280;19141;48.980;8.410;2023-03-18T07:45:59;99935.84;;;9.09;93.21
32789;BME280;19141;48.980;8.410;2023-03-18T07:48:25;99936.88;;;9.39;89.75
32789;BME280;19141;48.980;8.410;2023-03-18T07:50:50;99937.56;;;9.72;89.68
32789;BME280;19141;48.980;8.410;2023-03-18T07:53:15;99925.22;;;10.02;88.36
32789;BME280;19141;48.980;8.410;2023-03-18T07:55:41;99934.19;;;10.32;84.38
32789;BME280;19141;48.980;8.410;2023-03-18T07:58:06;99931.66;;;10.53;79.73
32789;BME280;19141;48.980;8.410;2023-03-18T08:00:35;99936.84;;;10.84;73.56
32789;BME280;19141;48.980;8.410;2023-03-18T08:03:02;99923.28;;;11.09;70.46
32789;BME280;19141;48.980;8.410;2023-03-18T08:05:28;99931.63;;;11.35;67.52
32789;BME280;19141;48.980;8.410;2023-03-18T08:07:53;99927.28;;;11.49;66.19
32789;BME280;19141;48.980;8.410;2023-03-18T08:10:19;99936.41;;;11.76;63.37
32789;BME280;19141;48.980;8.410;2023-03-18T08:12:45;99929.25;;;11.98;61.88
32789;BME280;19141;48.980;8.410;2023-03-18T08:15:10;99935.00;;;12.16;63.34
32789;BME280;19141;48.980;8.410;2023-03-18T08:17:37;99916.44;;;12.30;60.60
32789;BME280;19141;48.980;8.410;2023-03-18T08:20:03;99927.13;;;12.58;60.04
32789;BME280;19141;48.980;8.410;2023-03-18T08:22:29;99934.63;;;12.69;59.91
32789;BME280;19141;48.980;8.410;2023-03-18T08:24:54;99941.56;;;12.91;59.84
32789;BME280;19141;48.980;8.410;2023-03-18T08:27:22;99936.97;;;13.13;58.15
32789;BME280;19141;48.980;8.410;2023-03-18T08:29:48;99922.81;;;13.19;57.99
32789;BME280;19141;48.980;8.410;2023-03-18T08:32:14;99924.38;;;13.42;58.36
32789;BME280;19141;48.980;8.410;2023-03-18T08:34:41;99927.50;;;13.45;55.62
32789;BME280;19141;48.980;8.410;2023-03-18T08:37:07;99938.88;;;13.67;54.92
32789;BME280;19141;48.980;8.410;2023-03-18T08:39:33;99934.38;;;13.74;53.88
32789;BME280;19141;48.980;8.410;2023-03-18T08:42:01;99940.97;;;13.72;53.50
32789;BME280;19141;48.980;8.410;2023-03-18T08:44:27;99949.22;;;13.77;54.53
32789;BME280;19141;48.980;8.410;2023-03-18T08:46:53;99947.38;;;13.77;52.88
32789;BME280;19141;48.980;8.410;2023-03-18T08:49:18;99934.59;;;13.79;53.05
32789;BME280;19141;48.980;8.410;2023-03-18T08:51:43;99933.19;;;13.83;52.22
32789;BME280;19141;48.980;8.410;2023-03-18T08:54:09;99933.38;;;13.89;51.68
32789;BME280;19141;48.980;8.410;2023-03-18T08:56:34;99927.06;;;14.03;54.67
32789;BME280;19141;48.980;8.410;2023-03-18T08:59:00;99936.16;;;14.22;53.77
32789;BME280;19141;48.980;8.410;2023-03-18T09:01:25;99934.91;;;14.37;53.49
32789;BME280;19141;48.980;8.410;2023-03-18T09:03:50;99930.19;;;14.59;53.53
32789;BME280;19141;48.980;8.410;2023-03-18T09:06:16;99922.09;;;14.92;50.99
32789;BME280;19141;48.980;8.410;2023-03-18T09:08:42;99914.63;;;15.21;50.17
32789;BME280;19141;48.980;8.410;2023-03-18T09:11:09;99917.97;;;15.61;48.76
32789;BME280;19141;48.980;8.410;2023-03-18T09:13:35;99914.00;;;16.09;48.17
32789;BME280;19141;48.980;8.410;2023-03-18T09:16:00;99913.66;;;16.30;45.71
32789;BME280;19141;48.980;8.410;2023-03-18T09:18:26;99905.22;;;16.26;43.54
32789;BME280;19141;48.980;8.410;2023-03-18T09:20:52;99894.81;;;16.37;43.42
32789;BME280;19141;48.980;8.410;2023-03-18T09:23:18;99907.78;;;16.65;43.94
32789;BME280;19141;48.980;8.410;2023-03-18T09:25:44;99901.59;;;16.64;43.59
32789;BME280;19141;48.980;8.410;2023-03-18T09:28:11;99907.84;;;16.83;43.51
32789;BME280;19141;48.980;8.410;2023-03-18T09:30:36;99895.75;;;16.92;41.29
32789;BME280;19141;48.980;8.410;2023-03-18T09:33:03;99897.63;;;17.10;41.51
32789;BME280;19141;48.980;8.410;2023-03-18T09:35:31;99884.09;;;17.35;40.32
32789;BME280;19141;48.980;8.410;2023-03-18T09:37:56;99888.09;;;17.62;41.22
32789;BME280;19141;48.980;8.410;2023-03-18T09:40:27;99886.00;;;17.95;40.51
32789;BME280;19141;48.980;8.410;2023-03-18T09:43:04;99880.22;;;18.21;40.40
32789;BME280;19141;48.980;8.410;2023-03-18T09:45:39;99880.47;;;18.55;38.56
32789;BME280;19141;48.980;8.410;2023-03-18T09:48:42;99881.28;;;19.02;39.84
32789;BME280;19141;48.980;8.410;2023-03-18T09:53:59;99875.44;;;18.82;37.41
32789;BME280;19141;48.980;8.410;2023-03-18T09:56:29;99876.25;;;18.82;38.44
32789;BME280;19141;48.980;8.410;2023-03-18T09:59:15;99873.09;;;18.62;37.88
32789;BME280;19141;48.980;8.410;2023-03-18T10:01:45;99875.78;;;18.50;37.61
32789;BME280;19141;48.980;8.410;2023-03-18T10:04:28;99877.19;;;18.64;38.02
32789;BME280;19141;48.980;8.410;2023-03-18T10:07:06;99871.09;;;19.04;39.43
32789;BME280;19141;48.980;8.410;2023-03-18T10:09:41;99871.09;;;19.44;37.39
32789;BME280;19141;48.980;8.410;2023-03-18T10:17:36;99876.69;;;20.62;36.24
32789;BME280;19141;48.980;8.410;2023-03-18T10:23:09;99875.38;;;21.03;35.12
32789;BME280;19141;48.980;8.410;2023-03-18T10:25:46;99885.22;;;20.71;36.06
32789;BME280;19141;48.980;8.410;2023-03-18T10:31:10;99884.50;;;21.85;34.57
32789;BME280;19141;48.980;8.410;2023-03-18T10:33:58;99874.59;;;22.28;31.89
32789;BME280;19141;48.980;8.410;2023-03-18T10:36:38;99874.41;;;22.39;30.96
32789;BME280;19141;48.980;8.410;2023-03-18T10:39:31;99865.78;;;22.47;31.22
32789;BME280;19141;48.980;8.410;2023-03-18T10:41:58;99870.22;;;23.79;30.87
32789;BME280;19141;48.980;8.410;2023-03-18T10:44:27;99868.09;;;24.22;30.06
32789;BME280;19141;48.980;8.410;2023-03-18T10:47:01;99868.31;;;23.79;28.72
32789;BME280;19141;48.980;8.410;2023-03-18T10:49:34;99872.69;;;23.02;32.97
32789;BME280;19141;48.980;8.410;2023-03-18T10:52:41;99861.47;;;22.89;33.38
32789;BME280;19141;48.980;8.410;2023-03-18T10:55:15;99860.41;;;22.95;32.03
32789;BME280;19141;48.980;8.410;2023-03-18T10:57:41;99865.25;;;22.45;30.87
32789;BME280;19141;48.980;8.410;2023-03-18T11:00:24;99865.03;;;22.20;32.57
32789;BME280;19141;48.980;8.410;2023-03-18T11:02:51;99869.66;;;22.57;31.48
32789;BME280;19141;48.980;8.410;2023-03-18T11:07:59;99867.13;;;22.82;32.26
32789;BME280;19141;48.980;8.410;2023-03-18T11:10:29;99867.00;;;23.97;30.59
32789;BME280;19141;48.980;8.410;2023-03-18T11:13:00;99861.97;;;23.43;31.09
32789;BME280;19141;48.980;8.410;2023-03-18T11:15:35;99856.84;;;24.89;30.21
32789;BME280;19141;48.980;8.410;2023-03-18T11:18:02;99857.00;;;25.29;28.41
32789;BME280;19141;48.980;8.410;2023-03-18T11:20:38;99856.19;;;26.22;27.71
32789;BME280;19141;48.980;8.410;2023-03-18T11:23:31;99858.03;;;26.61;27.74
32789;BME280;19141;48.980;8.410;2023-03-18T11:26:19;99857.53;;;26.54;26.79
32789;BME280;19141;48.980;8.410;2023-03-18T11:28:45;99851.75;;;26.60;28.12
32789;BME280;19141;48.980;8.410;2023-03-18T11:31:15;99860.34;;;27.63;25.64
32789;BME280;19141;48.980;8.410;2023-03-18T11:33:41;99859.81;;;27.23;25.17
32789;BME280;19141;48.980;8.410;2023-03-18T11:36:11;99856.00;;;27.62;25.09
32789;BME280;19141;48.980;8.410;2023-03-18T11:38:38;99854.03;;;27.01;26.10
32789;BME280;19141;48.980;8.410;2023-03-18T11:43:37;99859.63;;;27.39;26.02
32789;BME280;19141;48.980;8.410;2023-03-18T11:46:05;99847.13;;;26.85;24.72
32789;BME280;19141;48.980;8.410;2023-03-18T11:48:33;99851.38;;;26.96;25.55
32789;BME280;19141;48.980;8.410;2023-03-18T11:51:21;99837.44;;;26.44;26.58
32789;BME280;19141;48.980;8.410;2023-03-18T12:09:44;99837.63;;;24.25;28.21
32789;BME280;19141;48.980;8.410;2023-03-18T12:12:38;99834.78;;;25.06;31.54
32789;BME280;19141;48.980;8.410;2023-03-18T12:15:21;99833.09;;;25.70;33.59
32789;BME280;19141;48.980;8.410;2023-03-18T12:18:33;99829.00;;;25.67;26.83
32789;BME280;19141;48.980;8.410;2023-03-18T12:26:51;99823.47;;;24.43;28.76
32789;BME280;19141;48.980;8.410;2023-03-18T12:29:44;99820.41;;;24.70;31.25
32789;BME280;19141;48.980;8.410;2023-03-18T12:32:29;99813.41;;;24.54;28.84
32789;BME280;19141;48.980;8.410;2023-03-18T12:38:02;99813.03;;;23.28;29.66
32789;BME280;19141;48.980;8.410;2023-03-18T12:40:42;99806.50;;;23.39;32.43
32789;BME280;19141;48.980;8.410;2023-03-18T12:46:47;99813.34;;;23.57;30.73
32789;BME280;19141;48.980;8.410;2023-03-18T12:49:33;99795.19;;;23.88;30.47
32789;BME280;19141;48.980;8.410;2023-03-18T12:55:00;99786.47;;;24.42;30.33
32789;BME280;19141;48.980;8.410;2023-03-18T13:00:02;99792.75;;;23.61;31.03
32789;BME280;19141;48.980;8.410;2023-03-18T13:02:48;99793.81;;;24.16;27.49
32789;BME280;19141;48.980;8.410;2023-03-18T13:13:51;99782.22;;;25.89;27.22
32789;BME280;19141;48.980;8.410;2023-03-18T13:16:20;99791.91;;;25.66;28.18
32789;BME280;19141;48.980;8.410;2023-03-18T13:18:48;99777.78;;;26.28;29.83
32789;BME280;19141;48.980;8.410;2023-03-18T13:21:20;99781.13;;;27.20;28.55
32789;BME280;19141;48.980;8.410;2023-03-18T13:29:52;99786.31;;;27.41;27.73
32789;BME280;19141;48.980;8.410;2023-03-18T13:38:23;99779.81;;;26.46;26.50
32789;BME280;19141;48.980;8.410;2023-03-18T13:41:19;99771.84;;;26.20;25.39
32789;BME280;19141;48.980;8.410;2023-03-18T13:43:58;99770.22;;;25.90;28.50
32789;BME280;19141;48.980;8.410;2023-03-18T13:46:28;99778.06;;;26.55;28.65
32789;BME280;19141;48.980;8.410;2023-03-18T13:48:59;99769.25;;;26.63;25.34
32789;BME280;19141;48.980;8.410;2023-03-18T13:53:56;99773.81;;;27.16;26.76
32789;BME280;19141;48.980;8.410;2023-03-18T13:56:43;99775.31;;;26.02;25.90
32789;BME280;19141;48.980;8.410;2023-03-18T14:01:58;99776.34;;;26.06;23.89
32789;BME280;19141;48.980;8.410;2023-03-18T14:04:49;99771.22;;;26.00;27.28
32789;BME280;19141;48.980;8.410;2023-03-18T14:07:19;99773.13;;;25.99;26.82
32789;BME280;19141;48.980;8.410;2023-03-18T14:10:17;99765.31;;;25.87;29.44
32789;BME280;19141;48.980;8.410;2023-03-18T14:12:45;99762.44;;;25.74;26.97
32789;BME280;19141;48.980;8.410;2023-03-18T14:17:44;99760.31;;;23.44;31.11
32789;BME280;19141;48.980;8.410;2023-03-18T14:22:44;99760.28;;;23.24;29.18
32789;BME280;19141;48.980;8.410;2023-03-18T14:27:54;99746.47;;;22.63;31.09
32789;BME280;19141;48.980;8.410;2023-03-18T14:30:42;99744.09;;;22.24;30.97
32789;BME280;19141;48.980;8.410;2023-03-18T14:38:23;99742.72;;;21.57;32.26
32789;BME280;19141;48.980;8.410;2023-03-18T14:40:53;99739.19;;;21.52;33.16
32789;BME280;19141;48.980;8.410;2023-03-18T14:43:24;99726.66;;;21.46;33.03
32789;BME280;19141;48.980;8.410;2023-03-18T14:45:56;99735.22;;;21.37;32.20
32789;BME280;19141;48.980;8.410;2023-03-18T14:48:26;99739.13;;;21.25;32.57
32789;BME280;19141;48.980;8.410;2023-03-18T14:50:58;99737.81;;;21.27;32.98
32789;BME280;19141;48.980;8.410;2023-03-18T14:55:57;99741.69;;;21.09;32.29
32789;BME280;19141;48.980;8.410;2023-03-18T14:58:24;99733.56;;;21.09;33.09
32789;BME280;19141;48.980;8.410;2023-03-18T15:01:05;99746.94;;;20.94;33.55
32789;BME280;19141;48.980;8.410;2023-03-18T15:03:33;99737.75;;;20.51;32.29
32789;BME280;19141;48.980;8.410;2023-03-18T15:06:00;99737.91;;;20.62;34.86
32789;BME280;19141;48.980;8.410;2023-03-18T15:08:33;99734.31;;;20.56;37.29
32789;BME280;19141;48.980;8.410;2023-03-18T15:11:02;99728.50;;;20.30;32.70
32789;BME280;19141;48.980;8.410;2023-03-18T15:13:31;99730.88;;;20.27;33.71
32789;BME280;19141;48.980;8.410;2023-03-18T15:15:56;99732.03;;;20.31;35.48
32789;BME280;19141;48.980;8.410;2023-03-18T15:18:36;99727.53;;;20.20;34.50
32789;BME280;19141;48.980;8.410;2023-03-18T15:21:16;99730.94;;;19.93;33.68
32789;BME280;19141;48.980;8.410;2023-03-18T15:23:46;99738.91;;;19.83;35.81
32789;BME280;19141;48.980;8.410;2023-03-18T15:26:20;99730.06;;;19.71;35.50
32789;BME280;19141;48.980;8.410;2023-03-18T15:28:47;99736.19;;;19.83;35.16
32789;BME280;19141;48.980;8.410;2023-03-18T15:31:42;99733.66;;;19.76;35.04
32789;BME280;19141;48.980;8.410;2023-03-18T15:34:16;99725.13;;;19.68;35.98
32789;BME280;19141;48.980;8.410;2023-03-18T15:36:49;99729.06;;;19.60;35.10
32789;BME280;19141;48.980;8.410;2023-03-18T15:39:28;99728.88;;;19.50;36.28
32789;BME280;19141;48.980;8.410;2023-03-18T15:41:57;99732.69;;;19.54;35.68
32789;BME280;19141;48.980;8.410;2023-03-18T15:44:26;99726.34;;;19.60;37.39
32789;BME280;19141;48.980;8.410;2023-03-18T15:46:53;99729.72;;;19.67;36.56
32789;BME280;19141;48.980;8.410;2023-03-18T15:49:25;99731.84;;;19.65;36.66
32789;BME280;19141;48.980;8.410;2023-03-18T15:51:57;99720.53;;;19.68;37.25
32789;BME280;19141;48.980;8.410;2023-03-18T15:54:25;99726.44;;;19.65;36.91
32789;BME280;19141;48.980;8.410;2023-03-18T15:56:54;99721.81;;;19.49;35.38
32789;BME280;19141;48.980;8.410;2023-03-18T15:59:27;99720.88;;;19.27;35.24
32789;BME280;19141;48.980;8.410;2023-03-18T16:01:56;99727.25;;;19.20;34.81
32789;BME280;19141;48.980;8.410;2023-03-18T16:04:23;99717.91;;;19.11;34.58
32789;BME280;19141;48.980;8.410;2023-03-18T16:06:50;99714.34;;;18.94;34.08
32789;BME280;19141;48.980;8.410;2023-03-18T16:14:20;99724.59;;;18.80;35.46
32789;BME280;19141;48.980;8.410;2023-03-18T16:16:47;99727.19;;;18.63;34.97
32789;BME280;19141;48.980;8.410;2023-03-18T16:19:21;99723.56;;;18.58;35.20
32789;BME280;19141;48.980;8.410;2023-03-18T16:21:50;99726.38;;;18.51;34.55
32789;BME280;19141;48.980;8.410;2023-03-18T16:24:16;99735.09;;;18.53;34.88
32789;BME280;19141;48.980;8.410;2023-03-18T16:26:41;99731.34;;;18.42;35.92
32789;BME280;19141;48.980;8.410;2023-03-18T16:29:17;99740.81;;;18.45;36.11
32789;BME280;19141;48.980;8.410;2023-03-18T16:31:47;99737.91;;;18.35;36.84
32789;BME280;19141;48.980;8.410;2023-03-18T16:34:14;99743.56;;;18.22;36.03
32789;BME280;19141;48.980;8.410;2023-03-18T16:36:40;99749.50;;;18.12;36.45
32789;BME280;19141;48.980;8.410;2023-03-18T16:39:13;99755.50;;;18.02;36.36
32789;BME280;19141;48.980;8.410;2023-03-18T16:41:39;99758.88;;;17.98;36.98
32789;BME280;19141;48.980;8.410;2023-03-18T16:44:11;99754.09;;;17.88;37.10
32789;BME280;19141;48.980;8.410;2023-03-18T16:46:36;99755.03;;;17.82;37.63
32789;BME280;19141;48.980;8.410;2023-03-18T16:49:03;99755.78;;;17.71;37.54
32789;BME280;19141;48.980;8.410;2023-03-18T16:51:29;99762.31;;;17.63;37.81
32789;BME280;19141;48.980;8.410;2023-03-18T16:53:56;99765.81;;;17.52;37.13
32789;BME280;19141;48.980;8.410;2023-03-18T16:56:21;99767.44;;;17.53;37.54
32789;BME280;19141;48.980;8.410;2023-03-18T16:58:48;99770.94;;;17.42;37.29
32789;BME280;19141;48.980;8.410;2023-03-18T17:01:15;99768.53;;;17.33;37.29
32789;BME280;19141;48.980;8.410;2023-03-18T17:03:41;99773.59;;;17.30;37.66
32789;BME280;19141;48.980;8.410;2023-03-18T17:06:07;99772.63;;;17.24;37.36
32789;BME280;19141;48.980;8.410;2023-03-18T17:08:34;99773.78;;;17.17;37.66
32789;BME280;19141;48.980;8.410;2023-03-18T17:11:02;99777.84;;;17.19;37.53
32789;BME280;19141;48.980;8.410;2023-03-18T17:13:29;99777.28;;;17.17;38.33
32789;BME280;19141;48.980;8.410;2023-03-18T17:15:55;99780.63;;;17.13;38.36
32789;BME280;19141;48.980;8.410;2023-03-18T17:18:22;99779.47;;;17.08;38.13
32789;BME280;19141;48.980;8.410;2023-03-18T17:20:49;99791.72;;;17.04;38.56
32789;BME280;19141;48.980;8.410;2023-03-18T17:23:20;99786.66;;;16.96;38.17
32789;BME280;19141;48.980;8.410;2023-03-18T17:25:51;99790.00;;;16.92;37.89
32789;BME280;19141;48.980;8.410;2023-03-18T17:28:23;99791.16;;;16.84;37.90
32789;BME280;19141;48.980;8.410;2023-03-18T17:30:51;99793.28;;;16.75;38.26
32789;BME280;19141;48.980;8.410;2023-03-18T17:33:22;99783.44;;;16.69;38.69
32789;BME280;19141;48.980;8.410;2023-03-18T17:35:50;99790.06;;;16.67;38.61
32789;BME280;19141;48.980;8.410;2023-03-18T17:38:16;99783.13;;;16.59;38.78
32789;BME280;19141;48.980;8.410;2023-03-18T17:40:42;99794.31;;;16.56;39.07
32789;BME280;19141;48.980;8.410;2023-03-18T17:43:15;99784.91;;;16.47;39.19
32789;BME280;19141;48.980;8.410;2023-03-18T17:45:42;99790.94;;;16.42;39.40
32789;BME280;19141;48.980;8.410;2023-03-18T17:48:24;99794.50;;;16.36;39.56
32789;BME280;19141;48.980;8.410;2023-03-18T17:50:56;99787.34;;;16.30;39.96
32789;BME280;19141;48.980;8.410;2023-03-18T17:53:26;99796.06;;;16.25;40.19
32789;BME280;19141;48.980;8.410;2023-03-18T17:55:54;99794.31;;;16.13;40.51
32789;BME280;19141;48.980;8.410;2023-03-18T17:58:22;99796.09;;;16.00;40.79
32789;BME280;19141;48.980;8.410;2023-03-18T18:00:47;99806.22;;;15.98;41.20
32789;BME280;19141;48.980;8.410;2023-03-18T18:03:19;99796.38;;;15.92;41.36
32789;BME280;19141;48.980;8.410;2023-03-18T18:05:45;99804.66;;;15.84;41.58
32789;BME280;19141;48.980;8.410;2023-03-18T18:08:15;99785.78;;;15.72;41.59
32789;BME280;19141;48.980;8.410;2023-03-18T18:10:42;99795.69;;;15.72;41.78
32789;BME280;19141;48.980;8.410;2023-03-18T18:13:13;99803.13;;;15.70;42.63
32789;BME280;19141;48.980;8.410;2023-03-18T18:15:39;99799.03;;;15.67;42.36
32789;BME280;19141;48.980;8.410;2023-03-18T18:18:13;99803.38;;;15.62;42.72
32789;BME280;19141;48.980;8.410;2023-03-18T18:20:41;99800.06;;;15.60;43.12
32789;BME280;19141;48.980;8.410;2023-03-18T18:23:17;99797.03;;;15.50;42.87
32789;BME280;19141;48.980;8.410;2023-03-18T18:25:47;99796.03;;;15.44;42.99
32789;BME280;19141;48.980;8.410;2023-03-18T18:28:25;99792.78;;;15.35;43.38
32789;BME280;19141;48.980;8.410;2023-03-18T18:30:52;99796.75;;;15.33;44.01
32789;BME280;19141;48.980;8.410;2023-03-18T18:33:17;99805.84;;;15.25;44.21
32789;BME280;19141;48.980;8.410;2023-03-18T18:35:43;99800.50;;;15.18;44.42
32789;BME280;19141;48.980;8.410;2023-03-18T18:38:08;99798.25;;;15.15;44.51
32789;BME280;19141;48.980;8.410;2023-03-18T18:40:34;99798.28;;;15.09;44.37
32789;BME280;19141;48.980;8.410;2023-03-18T18:43:00;99796.66;;;15.08;44.65
32789;BME280;19141;48.980;8.410;2023-03-18T18:45:26;99806.16;;;15.04;45.04
32789;BME280;19141;48.980;8.410;2023-03-18T18:47:54;99801.63;;;14.98;45.66
32789;BME280;19141;48.980;8.410;2023-03-18T18:50:25;99805.97;;;14.92;46.16
32789;BME280;19141;48.980;8.410;2023-03-18T18:52:51;99812.19;;;14.86;47.68
32789;BME280;19141;48.980;8.410;2023-03-18T18:55:17;99815.31;;;14.76;48.68
32789;BME280;19141;48.980;8.410;2023-03-18T18:57:43;99810.81;;;14.70;48.25
32789;BME280;19141;48.980;8.410;2023-03-18T19:00:28;99798.47;;;14.56;49.30
32789;BME280;19141;48.980;8.410;2023-03-18T19:02:54;99803.03;;;14.49;49.22
32789;BME280;19141;48.980;8.410;2023-03-18T19:05:22;99798.06;;;14.39;50.10
32789;BME280;19141;48.980;8.410;2023-03-18T19:07:48;99809.41;;;14.34;49.79
32789;BME280;19141;48.980;8.410;2023-03-18T19:10:15;99808.38;;;14.22;51.07
32789;BME280;19141;48.980;8.410;2023-03-18T19:12:41;99801.19;;;14.16;51.01
32789;BME280;19141;48.980;8.410;2023-03-18T19:15:09;99805.09;;;14.07;51.62
32789;BME280;19141;48.980;8.410;2023-03-18T19:17:34;99805.72;;;13.96;51.75
32789;BME280;19141;48.980;8.410;2023-03-18T19:20:01;99803.44;;;13.93;52.72
32789;BME280;19141;48.980;8.410;2023-03-18T19:22:27;99807.75;;;13.87;50.63
32789;BME280;19141;48.980;8.410;2023-03-18T19:24:52;99802.81;;;13.84;50.74
32789;BME280;19141;48.980;8.410;2023-03-18T19:27:28;99809.22;;;13.83;51.92
32789;BME280;19141;48.980;8.410;2023-03-18T19:29:57;99817.63;;;13.80;52.55
32789;BME280;19141;48.980;8.410;2023-03-18T19:32:24;99808.38;;;13.69;54.35
32789;BME280;19141;48.980;8.410;2023-03-18T19:34:51;99805.72;;;13.69;53.34
32789;BME280;19141;48.980;8.410;2023-03-18T19:37:21;99819.91;;;13.63;52.90
32789;BME280;19141;48.980;8.410;2023-03-18T19:39:47;99815.97;;;13.59;53.07
32789;BME280;19141;48.980;8.410;2023-03-18T19:42:17;99817.81;;;13.52;54.00
32789;BME280;19141;48.980;8.410;2023-03-18T19:44:43;99818.00;;;13.44;54.22
32789;BME280;19141;48.980;8.410;2023-03-18T19:47:21;99819.00;;;13.36;55.34
32789;BME280;19141;48.980;8.410;2023-03-18T19:49:47;99819.78;;;13.23;54.24
32789;BME280;19141;48.980;8.410;2023-03-18T19:52:24;99825.75;;;13.25;53.80
32789;BME280;19141;48.980;8.410;2023-03-18T19:54:51;99823.50;;;13.36;54.79
32789;BME280;19141;48.980;8.410;2023-03-18T19:57:23;99819.06;;;13.08;55.07
32789;BME280;19141;48.980;8.410;2023-03-18T19:59:51;99833.03;;;13.03;54.10
32789;BME280;19141;48.980;8.410;2023-03-18T20:04:49;99827.44;;;12.92;54.60
32789;BME280;19141;48.980;8.410;2023-03-18T20:07:16;99832.56;;;12.87;56.71
32789;BME280;19141;48.980;8.410;2023-03-18T20:09:41;99835.19;;;12.80;57.89
32789;BME280;19141;48.980;8.410;2023-03-18T20:12:17;99824.28;;;12.75;56.43
32789;BME280;19141;48.980;8.410;2023-03-18T20:14:43;99831.47;;;12.74;56.29
32789;BME280;19141;48.980;8.410;2023-03-18T20:17:25;99837.84;;;12.73;55.38
32789;BME280;19141;48.980;8.410;2023-03-18T20:19:51;99838.44;;;12.75;55.50